createdAt,value
2022-10-26T00:01:09.988Z,3.53
2022-10-26T00:03:37.773Z,3.63
2022-10-26T00:06:11.722Z,2.50
2022-10-26T00:08:38.641Z,3.00
2022-10-26T00:11:05.998Z,6.13
2022-10-26T00:13:33.717Z,2.50
2022-10-26T00:18:32.277Z,2.97
2022-10-26T00:21:07.218Z,2.50
2022-10-26T00:23:34.080Z,2.77
2022-10-26T00:26:01.229Z,3.73
2022-10-26T00:28:28.648Z,2.90
2022-10-26T00:30:55.538Z,2.50
2022-10-26T00:33:22.191Z,3.70
2022-10-26T00:35:53.473Z,2.40
2022-10-26T00:38:20.370Z,2.27
2022-10-26T00:40:47.528Z,3.67
2022-10-26T00:43:20.360Z,4.63
2022-10-26T00:45:49.409Z,2.03
2022-10-26T00:48:27.771Z,3.50
2022-10-26T00:50:55.814Z,2.63
2022-10-26T00:53:22.872Z,2.87
2022-10-26T00:55:52.387Z,3.60
2022-10-26T00:58:20.405Z,3.40
2022-10-26T01:00:48.232Z,2.77
2022-10-26T01:03:15.716Z,4.90
2022-10-26T01:05:46.134Z,2.40
2022-10-26T01:08:14.246Z,2.07
2022-10-26T01:10:42.616Z,3.63
2022-10-26T01:13:10.865Z,9.43
2022-10-26T01:15:48.307Z,2.20
2022-10-26T01:18:25.656Z,3.70
2022-10-26T01:21:08.777Z,2.47
2022-10-26T01:23:50.400Z,2.07
2022-10-26T01:26:48.178Z,3.57
2022-10-26T01:29:34.869Z,2.80
2022-10-26T01:32:10.476Z,1.80
2022-10-26T01:34:54.881Z,2.50
2022-10-26T01:37:30.162Z,2.60
2022-10-26T01:40:06.226Z,3.60
2022-10-26T01:42:35.126Z,2.37
2022-10-26T01:45:06.896Z,4.20
2022-10-26T01:47:37.023Z,1.43
2022-10-26T01:50:05.429Z,1.90
2022-10-26T01:52:32.393Z,4.73
2022-10-26T01:55:03.787Z,2.33
2022-10-26T01:57:34.852Z,2.13
2022-10-26T02:00:06.800Z,2.17
2022-10-26T02:02:55.196Z,5.70
2022-10-26T02:05:25.005Z,5.30
2022-10-26T02:08:15.920Z,2.57
2022-10-26T02:10:51.376Z,3.30
2022-10-26T02:13:39.501Z,2.23
2022-10-26T02:16:20.408Z,5.23
2022-10-26T02:19:29.445Z,3.90
2022-10-26T02:22:08.509Z,2.37
2022-10-26T02:24:36.670Z,2.57
2022-10-26T02:27:06.020Z,4.57
2022-10-26T02:29:34.732Z,3.13
2022-10-26T02:32:03.374Z,3.10
2022-10-26T02:34:32.386Z,2.20
2022-10-26T02:37:02.191Z,2.67
2022-10-26T02:39:33.147Z,4.20
2022-10-26T02:42:04.394Z,5.80
2022-10-26T02:44:36.473Z,1.90
2022-10-26T02:47:03.354Z,1.70
2022-10-26T02:49:30.246Z,3.03
2022-10-26T02:52:25.382Z,1.87
2022-10-26T02:54:57.540Z,6.67
2022-10-26T02:57:30.877Z,2.37
2022-10-26T02:59:58.599Z,1.67
2022-10-26T03:02:25.590Z,2.33
2022-10-26T03:04:54.151Z,3.40
2022-10-26T03:07:22.832Z,2.40
2022-10-26T03:09:49.662Z,2.27
2022-10-26T03:12:16.433Z,2.27
2022-10-26T03:14:43.199Z,2.00
2022-10-26T03:17:09.932Z,2.40
2022-10-26T03:19:36.589Z,2.10
2022-10-26T03:22:03.252Z,2.47
2022-10-26T03:24:29.903Z,3.47
2022-10-26T03:26:59.612Z,1.83
2022-10-26T03:29:28.764Z,6.73
2022-10-26T03:31:55.457Z,2.43
2022-10-26T03:34:22.155Z,3.83
2022-10-26T03:36:48.995Z,2.20
2022-10-26T03:39:15.772Z,3.60
2022-10-26T03:41:42.618Z,2.47
2022-10-26T03:44:09.443Z,1.73
2022-10-26T03:46:36.108Z,2.17
2022-10-26T03:49:02.757Z,3.47
2022-10-26T03:51:29.490Z,2.70
2022-10-26T03:53:56.125Z,1.80
2022-10-26T03:56:22.977Z,6.27
2022-10-26T03:58:49.746Z,2.43
2022-10-26T04:01:16.444Z,2.03
2022-10-26T04:03:43.152Z,1.43
2022-10-26T04:06:09.807Z,5.50
2022-10-26T04:08:36.525Z,3.00
2022-10-26T04:11:04.642Z,4.60
2022-10-26T04:13:32.145Z,4.20
2022-10-26T04:15:58.934Z,1.80
2022-10-26T04:18:25.683Z,2.90
2022-10-26T04:20:52.325Z,4.50
2022-10-26T04:23:19.985Z,3.00
2022-10-26T04:25:46.897Z,3.57
2022-10-26T04:28:14.511Z,1.67
2022-10-26T04:30:41.476Z,1.67
2022-10-26T04:33:08.236Z,2.30
2022-10-26T04:35:35.290Z,3.93
2022-10-26T04:38:06.779Z,2.07
2022-10-26T04:40:34.491Z,1.60
2022-10-26T04:43:01.172Z,1.57
2022-10-26T04:45:31.265Z,2.97
2022-10-26T04:48:01.243Z,1.83
2022-10-26T04:50:28.486Z,1.83
2022-10-26T04:52:55.399Z,4.00
2022-10-26T04:55:22.277Z,2.10
2022-10-26T04:57:49.123Z,3.23
2022-10-26T05:00:16.222Z,1.77
2022-10-26T05:02:43.052Z,1.53
2022-10-26T05:05:14.091Z,1.90
2022-10-26T05:07:41.997Z,3.73
2022-10-26T05:10:09.389Z,2.53
2022-10-26T05:12:36.119Z,1.93
2022-10-26T05:15:05.121Z,2.97
2022-10-26T05:17:34.473Z,6.20
2022-10-26T05:20:05.754Z,4.33
2022-10-26T05:22:32.666Z,1.90
2022-10-26T05:24:59.316Z,3.63
2022-10-26T05:27:25.954Z,3.67
2022-10-26T05:29:52.635Z,2.77
2022-10-26T05:32:19.249Z,8.50
2022-10-26T05:34:46.042Z,4.03
2022-10-26T05:37:12.673Z,2.03
2022-10-26T05:39:39.342Z,3.97
2022-10-26T05:42:06.004Z,1.73
2022-10-26T05:44:32.671Z,2.00
2022-10-26T05:46:59.348Z,6.60
2022-10-26T05:49:25.998Z,3.00
2022-10-26T05:51:52.648Z,4.20
2022-10-26T05:54:20.430Z,4.40
2022-10-26T05:56:47.683Z,5.10
2022-10-26T05:59:16.709Z,2.90
2022-10-26T06:01:57.696Z,3.33
2022-10-26T06:04:43.265Z,5.07
2022-10-26T06:07:16.712Z,2.93
2022-10-26T06:09:44.195Z,1.63
2022-10-26T06:12:13.466Z,6.00
2022-10-26T06:14:42.669Z,2.07
2022-10-26T06:17:29.576Z,4.57
2022-10-26T06:20:17.699Z,3.00
2022-10-26T06:22:53.609Z,3.97
2022-10-26T06:25:29.176Z,2.33
2022-10-26T06:28:25.541Z,2.63
2022-10-26T06:30:52.733Z,6.53
2022-10-26T06:33:32.577Z,5.07
2022-10-26T06:36:02.487Z,2.93
2022-10-26T06:38:31.145Z,3.77
2022-10-26T06:40:58.891Z,2.70
2022-10-26T06:43:32.074Z,1.80
2022-10-26T06:46:20.002Z,2.13
2022-10-26T06:48:58.276Z,9.13
2022-10-26T06:51:27.377Z,4.63
2022-10-26T06:54:14.213Z,4.67
2022-10-26T06:56:41.355Z,4.43
2022-10-26T06:59:16.659Z,9.27
2022-10-26T07:01:43.398Z,5.60
2022-10-26T07:04:10.093Z,5.50
2022-10-26T07:06:39.209Z,3.27
2022-10-26T07:09:06.313Z,2.90
2022-10-26T07:11:33.033Z,1.90
2022-10-26T07:13:59.681Z,1.73
2022-10-26T07:16:26.347Z,4.13
2022-10-26T07:18:53.025Z,2.47
2022-10-26T07:21:19.677Z,4.07
2022-10-26T07:23:46.339Z,4.33
2022-10-26T07:26:13.086Z,4.13
2022-10-26T07:28:39.894Z,7.00
2022-10-26T07:31:06.760Z,1.63
2022-10-26T07:33:35.879Z,3.60
2022-10-26T07:36:05.088Z,1.83
2022-10-26T07:38:31.854Z,3.60
2022-10-26T07:40:58.525Z,4.10
2022-10-26T07:43:25.193Z,1.87
2022-10-26T07:45:51.898Z,2.70
2022-10-26T07:48:18.626Z,8.60
2022-10-26T07:50:45.353Z,5.47
2022-10-26T07:53:12.086Z,2.27
2022-10-26T07:55:38.751Z,15.80
2022-10-26T07:58:05.606Z,5.07
2022-10-26T08:00:32.530Z,3.10
2022-10-26T08:02:59.389Z,2.00
2022-10-26T08:05:26.111Z,2.00
2022-10-26T08:07:53.037Z,3.27
2022-10-26T08:10:19.845Z,2.23
2022-10-26T08:12:46.524Z,2.17
2022-10-26T08:15:13.194Z,4.60
2022-10-26T08:17:39.854Z,2.20
2022-10-26T08:20:06.959Z,2.77
2022-10-26T08:22:33.753Z,1.40
2022-10-26T08:25:00.409Z,3.23
2022-10-26T08:27:27.289Z,3.50
2022-10-26T08:29:53.929Z,1.37
2022-10-26T08:32:20.621Z,1.60
2022-10-26T08:34:47.332Z,3.53
2022-10-26T08:37:14.096Z,3.17
2022-10-26T08:39:40.750Z,1.93
2022-10-26T08:42:33.937Z,2.93
2022-10-26T08:45:05.538Z,3.60
2022-10-26T08:47:43.238Z,2.20
2022-10-26T08:50:18.793Z,3.37
2022-10-26T08:53:03.941Z,2.87
2022-10-26T08:55:55.412Z,1.30
2022-10-26T08:58:27.393Z,1.07
2022-10-26T09:00:54.595Z,3.03
2022-10-26T09:03:21.289Z,1.70
2022-10-26T09:06:09.323Z,4.80
2022-10-26T09:09:02.080Z,3.67
2022-10-26T09:11:50.493Z,3.60
2022-10-26T09:14:25.002Z,3.63
2022-10-26T09:17:04.329Z,6.83
2022-10-26T09:19:40.223Z,0.90
2022-10-26T09:22:31.367Z,3.43
2022-10-26T09:25:07.657Z,2.97
2022-10-26T09:27:43.467Z,5.80
2022-10-26T09:30:16.269Z,2.00
2022-10-26T09:33:12.281Z,1.50
2022-10-26T09:35:50.056Z,2.87
2022-10-26T09:38:46.716Z,7.00
2022-10-26T09:41:31.000Z,4.03
2022-10-26T09:44:26.125Z,2.70
2022-10-26T09:47:14.841Z,2.10
2022-10-26T09:50:13.584Z,3.57
2022-10-26T09:52:40.242Z,2.70
2022-10-26T09:55:10.322Z,4.80
2022-10-26T09:57:39.610Z,1.53
2022-10-26T10:00:06.897Z,3.80
2022-10-26T10:02:45.050Z,2.60
2022-10-26T10:08:26.231Z,2.43
2022-10-26T10:11:01.565Z,5.30
2022-10-26T10:13:31.661Z,4.40
2022-10-26T10:16:25.067Z,1.77
2022-10-26T10:19:01.440Z,1.57
2022-10-26T10:21:40.662Z,7.60
2022-10-26T10:24:25.065Z,5.90
2022-10-26T10:27:00.961Z,3.20
2022-10-26T10:29:29.129Z,2.00
2022-10-26T10:31:57.965Z,4.40
2022-10-26T10:34:24.657Z,2.67
2022-10-26T10:36:51.900Z,1.57
2022-10-26T10:39:47.829Z,7.90
2022-10-26T10:42:20.899Z,1.17
2022-10-26T10:44:51.873Z,5.30
2022-10-26T10:47:24.244Z,4.93
2022-10-26T10:49:58.698Z,5.13
2022-10-26T10:52:28.443Z,4.70
2022-10-26T10:55:16.256Z,3.33
2022-10-26T10:58:14.804Z,1.73
2022-10-26T11:00:44.274Z,3.73
2022-10-26T11:03:43.666Z,1.37
2022-10-26T11:06:17.704Z,4.60
2022-10-26T11:08:53.797Z,1.70
2022-10-26T11:11:27.120Z,9.03
2022-10-26T11:14:18.383Z,2.13
2022-10-26T11:17:17.536Z,3.37
2022-10-26T11:19:59.969Z,1.77
2022-10-26T11:22:42.312Z,6.80
2022-10-26T11:25:24.324Z,2.80
2022-10-26T11:28:04.581Z,2.20
2022-10-26T11:30:34.578Z,2.10
2022-10-26T11:33:06.344Z,4.53
2022-10-26T11:35:41.063Z,4.63
2022-10-26T11:38:46.031Z,6.23
2022-10-26T11:41:30.922Z,6.87
2022-10-26T11:44:03.135Z,21.63
2022-10-26T11:46:41.433Z,6.60
2022-10-26T11:49:14.147Z,5.67
2022-10-26T11:52:18.139Z,4.63
2022-10-26T11:54:56.348Z,2.30
2022-10-26T11:57:24.957Z,3.80
2022-10-26T12:00:02.760Z,6.43
2022-10-26T12:02:29.491Z,6.73
2022-10-26T12:05:17.566Z,2.53
2022-10-26T12:07:55.749Z,6.00
2022-10-26T12:10:31.887Z,5.43
2022-10-26T12:13:15.179Z,3.90
2022-10-26T12:16:10.397Z,5.23
2022-10-26T12:18:56.581Z,7.07
2022-10-26T12:21:29.801Z,2.73
2022-10-26T12:24:22.359Z,3.97
2022-10-26T12:26:56.194Z,10.53
2022-10-26T12:29:28.657Z,4.90
2022-10-26T12:31:55.568Z,8.50
2022-10-26T12:34:31.387Z,35.67
2022-10-26T12:36:58.013Z,29.13
2022-10-26T12:39:42.380Z,22.17
2022-10-26T12:42:09.127Z,7.80
2022-10-26T12:44:41.349Z,15.10
2022-10-26T12:47:09.846Z,18.83
2022-10-26T12:50:01.453Z,8.80
2022-10-26T12:52:52.394Z,5.73
2022-10-26T12:55:42.096Z,5.33
2022-10-26T12:58:42.783Z,10.47
2022-10-26T13:01:21.475Z,18.63
2022-10-26T13:04:06.778Z,9.90
2022-10-26T13:06:41.389Z,8.63
2022-10-26T13:09:34.466Z,5.43
2022-10-26T13:12:03.056Z,7.20
2022-10-26T13:14:32.856Z,6.40
2022-10-26T13:17:01.797Z,6.23
2022-10-26T13:19:42.343Z,7.73
2022-10-26T13:22:16.222Z,2.60
2022-10-26T13:24:51.503Z,8.03
2022-10-26T13:27:18.214Z,6.67
2022-10-26T13:30:03.344Z,7.40
2022-10-26T13:32:38.921Z,7.07
2022-10-26T13:35:11.046Z,6.60
2022-10-26T13:37:43.838Z,4.40
2022-10-26T13:40:18.564Z,7.97
2022-10-26T13:42:47.857Z,13.73
2022-10-26T13:45:30.332Z,7.90
2022-10-26T13:48:06.217Z,9.47
2022-10-26T13:53:41.322Z,7.80
2022-10-26T13:56:33.353Z,5.40
2022-10-26T13:59:13.008Z,6.20
2022-10-26T14:01:40.124Z,8.77
2022-10-26T14:04:18.072Z,5.40
2022-10-26T14:06:51.016Z,6.50
2022-10-26T14:09:19.960Z,5.33
2022-10-26T14:11:51.196Z,11.07
2022-10-26T14:14:25.544Z,9.87
2022-10-26T14:16:54.171Z,7.00
2022-10-26T14:19:30.864Z,13.80
2022-10-26T14:21:58.366Z,5.90
2022-10-26T14:24:45.835Z,6.70
2022-10-26T14:27:18.050Z,7.00
2022-10-26T14:29:49.792Z,4.80
2022-10-26T14:32:28.663Z,11.83
2022-10-26T14:34:56.022Z,5.07
2022-10-26T14:37:32.321Z,8.07
2022-10-26T14:39:59.169Z,4.87
2022-10-26T14:42:31.442Z,4.80
2022-10-26T14:44:58.952Z,4.90
2022-10-26T14:47:36.441Z,7.80
2022-10-26T14:50:03.513Z,3.90
2022-10-26T14:52:35.494Z,4.73
2022-10-26T14:55:11.258Z,8.07
2022-10-26T14:57:39.844Z,7.50
2022-10-26T15:00:19.564Z,4.73
2022-10-26T15:02:48.847Z,3.33
2022-10-26T15:05:24.429Z,7.43
2022-10-26T15:07:52.523Z,8.13
2022-10-26T15:10:37.977Z,8.23
2022-10-26T15:13:24.605Z,4.27
2022-10-26T15:15:56.086Z,5.20
2022-10-26T15:18:34.944Z,4.13
2022-10-26T15:21:02.354Z,5.37
2022-10-26T15:23:30.638Z,4.17
2022-10-26T15:26:02.670Z,4.73
2022-10-26T15:28:30.670Z,5.00
2022-10-26T15:31:11.493Z,3.73
2022-10-26T15:33:40.852Z,5.33
2022-10-26T15:36:17.692Z,7.33
2022-10-26T15:38:45.094Z,4.73
2022-10-26T15:41:16.756Z,10.33
2022-10-26T15:43:43.658Z,14.57
2022-10-26T15:46:10.783Z,10.10
2022-10-26T15:48:37.902Z,4.40
2022-10-26T15:51:04.814Z,5.63
2022-10-26T15:53:31.513Z,9.00
2022-10-26T15:55:59.785Z,8.80
2022-10-26T15:58:28.353Z,7.80
2022-10-26T16:00:55.067Z,8.40
2022-10-26T16:03:23.978Z,6.27
2022-10-26T16:05:57.160Z,7.30
2022-10-26T16:08:23.991Z,6.93
2022-10-26T16:10:51.138Z,6.83
2022-10-26T16:13:18.011Z,4.80
2022-10-26T16:15:45.119Z,4.00
2022-10-26T16:18:12.057Z,12.30
2022-10-26T16:20:39.035Z,10.03
2022-10-26T16:23:08.390Z,5.90
2022-10-26T16:25:41.763Z,8.43
2022-10-26T16:28:11.133Z,8.97
2022-10-26T16:30:37.827Z,4.87
2022-10-26T16:33:04.543Z,7.07
2022-10-26T16:35:31.256Z,8.30
2022-10-26T16:37:57.926Z,12.40
2022-10-26T16:40:25.077Z,5.47
2022-10-26T16:42:51.859Z,6.93
2022-10-26T16:45:18.727Z,6.20
2022-10-26T16:47:45.533Z,7.20
2022-10-26T16:50:13.359Z,12.93
2022-10-26T16:52:40.397Z,5.97
2022-10-26T16:55:08.700Z,11.40
2022-10-26T16:57:36.969Z,9.17
2022-10-26T17:00:05.868Z,8.20
2022-10-26T17:02:32.966Z,6.63
2022-10-26T17:05:02.663Z,7.30
2022-10-26T17:07:32.691Z,9.87
2022-10-26T17:09:59.474Z,5.60
2022-10-26T17:14:53.811Z,8.60
2022-10-26T17:17:20.624Z,14.33
2022-10-26T17:19:47.252Z,8.03
2022-10-26T17:22:13.946Z,6.33
2022-10-26T17:24:40.618Z,7.43
2022-10-26T17:27:07.310Z,11.43
2022-10-26T17:29:33.992Z,9.50
2022-10-26T17:32:00.748Z,8.30
2022-10-26T17:34:27.420Z,6.30
2022-10-26T17:36:54.051Z,8.20
2022-10-26T17:39:20.862Z,8.20
2022-10-26T17:41:47.790Z,7.67
2022-10-26T17:44:14.432Z,6.07
2022-10-26T17:46:41.147Z,10.33
2022-10-26T17:49:07.881Z,9.93
2022-10-26T17:51:34.724Z,12.53
2022-10-26T17:54:01.428Z,15.80
2022-10-26T17:56:31.728Z,10.50
2022-10-26T17:59:00.322Z,13.20
2022-10-26T18:01:28.225Z,9.47
2022-10-26T18:03:55.497Z,8.97
2022-10-26T18:06:22.760Z,10.73
2022-10-26T18:08:49.492Z,11.43
2022-10-26T18:11:23.826Z,8.20
2022-10-26T18:13:56.739Z,8.30
2022-10-26T18:16:25.551Z,9.73
2022-10-26T18:19:04.214Z,16.07
2022-10-26T18:21:33.666Z,6.47
2022-10-26T18:24:00.330Z,11.83
2022-10-26T18:26:28.880Z,5.03
2022-10-26T18:28:56.719Z,7.60
2022-10-26T18:31:24.512Z,5.97
2022-10-26T18:34:00.009Z,5.93
2022-10-26T18:36:27.671Z,7.57
2022-10-26T18:38:55.329Z,5.00
2022-10-26T18:41:22.860Z,6.63
2022-10-26T18:43:52.855Z,5.83
2022-10-26T18:46:24.860Z,4.20
2022-10-26T18:48:52.348Z,6.00
2022-10-26T18:51:21.717Z,8.17
2022-10-26T18:53:48.770Z,6.23
2022-10-26T18:56:18.260Z,15.80
2022-10-26T18:58:47.671Z,19.10
2022-10-26T19:01:16.963Z,18.13
2022-10-26T19:03:44.436Z,11.93
2022-10-26T19:06:19.758Z,13.87
2022-10-26T19:08:46.778Z,18.87
2022-10-26T19:11:16.138Z,12.83
2022-10-26T19:13:42.955Z,9.77
2022-10-26T19:16:40.719Z,10.03
2022-10-26T19:19:10.692Z,9.60
2022-10-26T19:21:37.469Z,18.50
2022-10-26T19:24:04.419Z,18.77
2022-10-26T19:26:36.030Z,16.73
2022-10-26T19:29:07.120Z,15.97
2022-10-26T19:31:35.774Z,10.90
2022-10-26T19:34:03.463Z,12.00
2022-10-26T19:36:30.585Z,13.23
2022-10-26T19:38:57.518Z,10.03
2022-10-26T19:41:26.626Z,8.77
2022-10-26T19:43:54.726Z,13.30
2022-10-26T19:46:24.431Z,15.60
2022-10-26T19:48:53.301Z,11.27
2022-10-26T19:51:20.640Z,15.73
2022-10-26T19:53:47.369Z,7.33
2022-10-26T19:56:14.803Z,14.47
2022-10-26T19:58:43.124Z,9.60
2022-10-26T20:01:12.255Z,7.37
2022-10-26T20:03:39.467Z,9.57
2022-10-26T20:06:12.606Z,8.00
2022-10-26T20:08:44.460Z,14.37
2022-10-26T20:11:15.508Z,8.73
2022-10-26T20:13:44.401Z,10.47
2022-10-26T20:16:12.061Z,11.30
2022-10-26T20:18:42.628Z,8.00
2022-10-26T20:21:15.845Z,7.70
2022-10-26T20:23:43.236Z,9.03
2022-10-26T20:26:12.706Z,6.90
2022-10-26T20:28:49.938Z,10.20
2022-10-26T20:31:17.477Z,10.73
2022-10-26T20:33:44.102Z,9.23
2022-10-26T20:36:10.862Z,7.03
2022-10-26T20:38:39.311Z,4.23
2022-10-26T20:41:09.334Z,5.67
2022-10-26T20:43:39.243Z,8.90
2022-10-26T20:46:06.908Z,7.50
2022-10-26T20:48:34.062Z,6.30
2022-10-26T20:51:06.743Z,3.03
2022-10-26T20:53:43.266Z,4.93
2022-10-26T20:56:24.950Z,12.97
2022-10-26T20:58:55.817Z,5.00
2022-10-26T21:01:28.387Z,4.20
2022-10-26T21:03:57.281Z,6.13
2022-10-26T21:06:25.075Z,7.53
2022-10-26T21:08:53.761Z,9.13
2022-10-26T21:11:22.684Z,8.40
2022-10-26T21:13:50.017Z,10.40
2022-10-26T21:16:17.552Z,5.37
2022-10-26T21:18:44.303Z,4.90
2022-10-26T21:21:11.291Z,6.07
2022-10-26T21:23:39.723Z,6.83
2022-10-26T21:26:07.522Z,8.97
2022-10-26T21:28:36.722Z,6.43
2022-10-26T21:31:09.006Z,8.47
2022-10-26T21:33:35.928Z,5.53
2022-10-26T21:36:05.250Z,9.20
2022-10-26T21:38:32.845Z,4.00
2022-10-26T21:41:08.832Z,9.50
2022-10-26T21:43:38.605Z,6.60
2022-10-26T21:46:06.115Z,8.30
2022-10-26T21:48:34.112Z,5.47
2022-10-26T21:51:06.038Z,10.77
2022-10-26T21:53:33.068Z,5.97
2022-10-26T21:56:05.454Z,7.30
2022-10-26T21:58:32.386Z,9.67
2022-10-26T22:01:10.627Z,6.43
2022-10-26T22:03:38.376Z,5.10
2022-10-26T22:06:06.262Z,7.77
2022-10-26T22:08:33.592Z,9.70
2022-10-26T22:11:06.476Z,9.23
2022-10-26T22:13:33.662Z,9.40
2022-10-26T22:16:12.102Z,8.70
2022-10-26T22:18:40.925Z,5.40
2022-10-26T22:21:08.496Z,6.80
2022-10-26T22:23:38.245Z,5.83
2022-10-26T22:26:07.502Z,9.00
2022-10-26T22:28:39.926Z,10.00
2022-10-26T22:31:12.766Z,6.73
2022-10-26T22:33:39.937Z,5.60
2022-10-26T22:36:11.319Z,5.20
2022-10-26T22:38:38.202Z,6.83
2022-10-26T22:41:05.042Z,11.40
2022-10-26T22:43:32.149Z,8.13
2022-10-26T22:46:10.028Z,5.47
2022-10-26T22:48:37.294Z,7.40
2022-10-26T22:51:09.760Z,7.37
2022-10-26T22:53:36.930Z,7.40
2022-10-26T22:56:05.890Z,7.27
2022-10-26T22:58:33.043Z,8.00
2022-10-26T23:01:06.875Z,4.97
2022-10-26T23:03:34.370Z,10.73
2022-10-26T23:06:01.554Z,6.73
2022-10-26T23:08:28.551Z,3.67
2022-10-26T23:11:02.138Z,7.17
2022-10-26T23:13:29.014Z,8.17
2022-10-26T23:15:56.685Z,5.60
2022-10-26T23:18:23.578Z,9.53
2022-10-26T23:20:53.435Z,7.90
2022-10-26T23:23:20.162Z,10.33
2022-10-26T23:25:46.815Z,4.63
2022-10-26T23:28:13.531Z,8.20
2022-10-26T23:30:40.247Z,5.67
2022-10-26T23:33:07.101Z,5.10
2022-10-26T23:35:33.807Z,7.60
2022-10-26T23:38:00.636Z,5.60
2022-10-26T23:40:27.793Z,7.37
2022-10-26T23:42:54.804Z,3.90
2022-10-26T23:45:21.956Z,5.10
2022-10-26T23:47:49.694Z,6.57
2022-10-26T23:50:16.766Z,6.70
2022-10-26T23:52:50.364Z,3.33
2022-10-26T23:55:17.296Z,5.43
2022-10-26T23:57:43.959Z,4.43
